createdAt,value
2024-02-23T00:00:12.640Z,10.33
2024-02-23T00:03:15.141Z,10.37
2024-02-23T00:06:17.448Z,10.33
2024-02-23T00:09:20.100Z,10.32
2024-02-23T00:12:22.452Z,10.26
2024-02-23T00:15:26.515Z,10.30
2024-02-23T00:18:29.206Z,10.37
2024-02-23T00:21:31.813Z,10.34
2024-02-23T00:24:34.103Z,10.41
2024-02-23T00:27:36.778Z,10.41
2024-02-23T00:30:39.022Z,10.41
2024-02-23T00:33:43.482Z,10.47
2024-02-23T00:36:46.139Z,10.52
2024-02-23T00:39:49.212Z,10.52
2024-02-23T00:42:51.502Z,10.54
2024-02-23T00:45:54.139Z,10.53
2024-02-23T00:48:56.644Z,10.55
2024-02-23T00:51:59.308Z,10.60
2024-02-23T00:55:01.730Z,10.60
2024-02-23T00:58:04.926Z,10.64
2024-02-23T01:01:07.511Z,10.67
2024-02-23T01:04:09.953Z,10.72
2024-02-23T01:07:12.103Z,10.70
2024-02-23T01:10:14.668Z,10.66
2024-02-23T01:13:17.095Z,10.63
2024-02-23T01:16:19.723Z,10.53
2024-02-23T01:19:21.954Z,10.49
2024-02-23T01:22:24.805Z,10.37
2024-02-23T01:25:27.451Z,10.32
2024-02-23T01:28:29.914Z,10.28
2024-02-23T01:31:32.092Z,10.23
2024-02-23T01:34:35.154Z,10.12
2024-02-23T01:37:37.963Z,10.06
2024-02-23T01:40:40.883Z,10.01
2024-02-23T01:43:43.272Z,9.96
2024-02-23T01:46:46.478Z,9.92
2024-02-23T01:49:49.202Z,9.88
2024-02-23T01:52:53.496Z,9.86
2024-02-23T01:55:56.364Z,9.77
2024-02-23T01:59:00.274Z,9.77
2024-02-23T02:02:04.107Z,9.78
2024-02-23T02:05:08.909Z,9.82
2024-02-23T02:08:12.233Z,9.83
2024-02-23T02:11:14.865Z,9.82
2024-02-23T02:14:18.251Z,9.78
2024-02-23T02:17:20.986Z,9.80
2024-02-23T02:20:26.996Z,9.73
2024-02-23T02:23:29.606Z,9.71
2024-02-23T02:26:32.488Z,9.72
2024-02-23T02:29:36.757Z,9.73
2024-02-23T02:32:39.209Z,9.72
2024-02-23T02:35:41.848Z,9.73
2024-02-23T02:38:44.129Z,9.72
2024-02-23T02:41:46.637Z,9.73
2024-02-23T02:44:48.863Z,9.76
2024-02-23T02:47:51.541Z,9.76
2024-02-23T02:50:54.607Z,9.75
2024-02-23T02:53:57.481Z,9.77
2024-02-23T02:56:59.696Z,9.74
2024-02-23T03:00:02.329Z,9.65
2024-02-23T03:03:04.608Z,9.67
2024-02-23T03:06:08.595Z,9.55
2024-02-23T03:09:10.888Z,9.58
2024-02-23T03:12:13.498Z,9.52
2024-02-23T03:15:16.141Z,9.51
2024-02-23T03:18:18.833Z,9.45
2024-02-23T03:21:21.369Z,9.47
2024-02-23T03:24:23.864Z,9.38
2024-02-23T03:27:30.481Z,9.43
2024-02-23T03:30:36.812Z,9.39
2024-02-23T03:33:40.297Z,9.33
2024-02-23T03:36:42.955Z,9.34
2024-02-23T03:39:45.170Z,9.30
2024-02-23T03:42:47.675Z,9.20
2024-02-23T03:45:51.673Z,9.25
2024-02-23T03:48:54.592Z,9.30
2024-02-23T03:51:56.826Z,9.38
2024-02-23T03:54:59.306Z,9.31
2024-02-23T03:58:01.539Z,9.32
2024-02-23T04:01:04.261Z,9.25
2024-02-23T04:04:07.434Z,9.18
2024-02-23T04:07:09.629Z,9.27
2024-02-23T04:10:17.094Z,9.41
2024-02-23T04:13:19.400Z,9.40
2024-02-23T04:16:25.861Z,9.51
2024-02-23T04:19:28.120Z,9.56
2024-02-23T04:22:30.695Z,9.58
2024-02-23T04:25:32.957Z,9.57
2024-02-23T04:28:38.825Z,9.54
2024-02-23T04:31:41.131Z,9.56
2024-02-23T04:34:43.586Z,9.52
2024-02-23T04:37:46.405Z,9.52
2024-02-23T04:40:48.934Z,9.51
2024-02-23T04:43:51.709Z,9.50
2024-02-23T04:46:54.341Z,9.53
2024-02-23T04:49:56.640Z,9.57
2024-02-23T04:52:59.239Z,9.65
2024-02-23T04:56:01.473Z,9.64
2024-02-23T04:59:04.782Z,9.74
2024-02-23T05:02:07.148Z,9.73
2024-02-23T05:05:10.257Z,9.74
2024-02-23T05:08:12.701Z,9.80
2024-02-23T05:11:17.590Z,9.80
2024-02-23T05:14:20.035Z,9.84
2024-02-23T05:17:22.772Z,9.78
2024-02-23T05:20:25.072Z,9.73
2024-02-23T05:23:27.583Z,9.72
2024-02-23T05:26:29.947Z,9.73
2024-02-23T05:29:33.010Z,9.70
2024-02-23T05:32:35.439Z,9.60
2024-02-23T05:35:38.109Z,9.60
2024-02-23T05:38:40.413Z,9.63
2024-02-23T05:41:43.330Z,9.55
2024-02-23T05:44:46.166Z,9.53
2024-02-23T05:47:49.063Z,9.49
2024-02-23T05:50:51.827Z,9.51
2024-02-23T05:53:54.317Z,9.37
2024-02-23T05:56:57.855Z,9.41
2024-02-23T06:00:00.479Z,9.42
2024-02-23T06:03:02.764Z,9.41
2024-02-23T06:06:09.331Z,9.41
2024-02-23T06:09:11.654Z,9.37
2024-02-23T06:12:14.270Z,9.35
2024-02-23T06:15:16.539Z,9.34
2024-02-23T06:18:19.073Z,9.35
2024-02-23T06:21:22.496Z,9.30
2024-02-23T06:24:24.958Z,9.28
2024-02-23T06:27:28.744Z,9.25
2024-02-23T06:30:31.271Z,9.33
2024-02-23T06:33:33.580Z,9.36
2024-02-23T06:36:36.830Z,9.43
2024-02-23T06:39:39.079Z,9.41
2024-02-23T06:42:41.536Z,9.44
2024-02-23T06:45:45.322Z,9.38
2024-02-23T06:48:48.017Z,9.36
2024-02-23T06:51:50.235Z,9.44
2024-02-23T06:54:54.047Z,9.42
2024-02-23T06:57:56.443Z,9.38
2024-02-23T07:00:58.964Z,9.49
2024-02-23T07:04:01.205Z,9.41
2024-02-23T07:07:08.401Z,9.46
2024-02-23T07:10:12.316Z,9.50
2024-02-23T07:13:14.986Z,9.61
2024-02-23T07:16:17.356Z,9.69
2024-02-23T07:19:21.350Z,9.71
2024-02-23T07:22:23.625Z,9.77
2024-02-23T07:25:27.032Z,9.71
2024-02-23T07:28:29.533Z,9.70
2024-02-23T07:31:34.857Z,9.69
2024-02-23T07:34:38.863Z,9.67
2024-02-23T07:37:41.451Z,9.72
2024-02-23T07:40:43.584Z,9.72
2024-02-23T07:43:46.222Z,9.72
2024-02-23T07:46:48.460Z,9.72
2024-02-23T07:49:53.152Z,9.70
2024-02-23T07:52:56.131Z,9.73
2024-02-23T07:56:03.125Z,9.74
2024-02-23T07:59:05.584Z,9.77
2024-02-23T08:02:08.577Z,9.77
2024-02-23T08:05:11.653Z,9.80
2024-02-23T08:08:14.155Z,9.73
2024-02-23T08:11:16.840Z,9.78
2024-02-23T08:14:19.211Z,9.83
2024-02-23T08:17:22.108Z,9.78
2024-02-23T08:20:24.617Z,9.75
2024-02-23T08:23:27.781Z,9.80
2024-02-23T08:26:30.217Z,9.89
2024-02-23T08:29:39.007Z,9.79
2024-02-23T08:32:42.251Z,9.86
2024-02-23T08:35:44.825Z,9.83
2024-02-23T08:38:47.085Z,9.99
2024-02-23T08:41:53.905Z,10.03
2024-02-23T08:44:56.342Z,10.16
2024-02-23T08:47:59.219Z,10.19
2024-02-23T08:51:01.434Z,10.22
2024-02-23T08:54:06.559Z,10.16
2024-02-23T08:57:08.799Z,10.23
2024-02-23T09:00:14.704Z,10.26
2024-02-23T09:03:18.344Z,10.19
2024-02-23T09:06:21.839Z,10.21
2024-02-23T09:09:25.248Z,10.20
2024-02-23T09:12:27.828Z,10.25
2024-02-23T09:15:30.061Z,10.37
2024-02-23T09:18:32.571Z,10.35
2024-02-23T09:21:34.871Z,10.57
2024-02-23T09:24:41.539Z,10.52
2024-02-23T09:27:48.948Z,10.44
2024-02-23T09:30:51.470Z,10.38
2024-02-23T09:33:53.770Z,10.45
2024-02-23T09:36:56.919Z,10.45
2024-02-23T09:39:59.320Z,10.58
2024-02-23T09:43:01.834Z,10.67
2024-02-23T09:46:04.504Z,10.74
2024-02-23T09:49:09.031Z,10.72
2024-02-23T09:52:12.065Z,10.80
2024-02-23T09:55:14.933Z,10.68
2024-02-23T09:58:18.376Z,10.52
2024-02-23T10:01:34.517Z,10.67
2024-02-23T10:04:37.620Z,10.70
2024-02-23T10:07:40.356Z,10.69
2024-02-23T10:10:43.063Z,10.71
2024-02-23T10:13:45.443Z,10.87
2024-02-23T10:16:48.488Z,10.98
2024-02-23T10:19:50.945Z,10.82
2024-02-23T10:22:55.108Z,10.86
2024-02-23T10:25:57.736Z,10.97
2024-02-23T10:29:00.435Z,10.86
2024-02-23T10:32:02.814Z,10.71
2024-02-23T10:35:15.308Z,10.79
2024-02-23T10:38:19.791Z,10.76
2024-02-23T10:41:22.651Z,10.77
2024-02-23T10:44:31.877Z,10.86
2024-02-23T10:47:38.778Z,10.89
2024-02-23T10:50:44.771Z,10.96
2024-02-23T10:53:51.394Z,11.08
2024-02-23T10:56:54.477Z,11.08
2024-02-23T10:59:57.030Z,11.06
2024-02-23T11:02:59.877Z,11.07
2024-02-23T11:06:02.673Z,11.06
2024-02-23T11:09:11.787Z,11.11
2024-02-23T11:12:23.780Z,11.30
2024-02-23T11:15:30.351Z,11.49
2024-02-23T11:18:35.239Z,11.52
2024-02-23T11:21:39.956Z,11.66
2024-02-23T11:24:50.234Z,11.56
2024-02-23T11:27:53.324Z,11.68
2024-02-23T11:30:56.173Z,11.56
2024-02-23T11:33:59.803Z,11.67
2024-02-23T11:37:11.994Z,11.65
2024-02-23T11:40:14.694Z,11.77
2024-02-23T11:43:17.897Z,11.69
2024-02-23T11:46:21.010Z,11.56
2024-02-23T11:49:29.420Z,11.62
2024-02-23T11:52:31.820Z,11.62
2024-02-23T11:55:34.649Z,11.83
2024-02-23T11:58:37.095Z,11.77
2024-02-23T12:01:39.771Z,11.82
2024-02-23T12:04:42.473Z,11.95
2024-02-23T12:07:47.617Z,12.05
2024-02-23T12:10:50.960Z,11.81
2024-02-23T12:13:53.532Z,11.98
2024-02-23T12:16:58.631Z,12.20
2024-02-23T12:20:01.833Z,12.56
2024-02-23T12:23:04.642Z,12.85
2024-02-23T12:26:07.005Z,12.97
2024-02-23T12:29:11.225Z,12.94
2024-02-23T12:32:13.504Z,12.84
2024-02-23T12:35:17.326Z,12.62
2024-02-23T12:38:19.730Z,12.55
2024-02-23T12:41:22.406Z,12.24
2024-02-23T12:44:25.522Z,12.14
2024-02-23T12:47:28.134Z,12.06
2024-02-23T12:50:33.782Z,11.94
2024-02-23T12:53:41.247Z,11.85
2024-02-23T12:56:43.807Z,11.86
2024-02-23T12:59:46.394Z,11.83
2024-02-23T13:02:49.016Z,11.76
2024-02-23T13:05:52.114Z,11.84
2024-02-23T13:08:54.672Z,11.73
2024-02-23T13:11:58.491Z,11.77
2024-02-23T13:15:00.823Z,11.56
2024-02-23T13:18:04.127Z,11.62
2024-02-23T13:21:06.458Z,11.53
2024-02-23T13:24:09.002Z,11.53
2024-02-23T13:27:11.709Z,11.56
2024-02-23T13:30:14.914Z,11.35
2024-02-23T13:33:17.599Z,11.33
2024-02-23T13:36:20.376Z,11.37
2024-02-23T13:39:22.590Z,11.37
2024-02-23T13:42:25.186Z,11.37
2024-02-23T13:45:27.932Z,11.36
2024-02-23T13:48:30.601Z,11.35
2024-02-23T13:51:33.766Z,11.36
2024-02-23T13:54:36.368Z,11.26
2024-02-23T13:57:38.604Z,11.20
2024-02-23T14:00:41.306Z,11.22
2024-02-23T14:03:43.974Z,11.35
2024-02-23T14:06:46.206Z,11.30
2024-02-23T14:09:48.766Z,11.42
2024-02-23T14:12:51.837Z,11.42
2024-02-23T14:15:55.060Z,11.36
2024-02-23T14:18:57.277Z,11.36
2024-02-23T14:21:59.959Z,11.39
2024-02-23T14:25:02.345Z,11.43
2024-02-23T14:28:05.036Z,11.35
2024-02-23T14:31:07.217Z,11.27
2024-02-23T14:34:10.084Z,11.26
2024-02-23T14:37:12.662Z,11.41
2024-02-23T14:40:16.042Z,11.33
2024-02-23T14:43:19.136Z,11.24
2024-02-23T14:46:21.682Z,11.26
2024-02-23T14:49:23.929Z,11.23
2024-02-23T14:52:26.653Z,11.22
2024-02-23T14:55:28.830Z,11.12
2024-02-23T14:58:31.396Z,11.05
2024-02-23T15:01:33.723Z,11.09
2024-02-23T15:04:36.159Z,11.09
2024-02-23T15:07:38.608Z,11.05
2024-02-23T15:10:41.143Z,11.15
2024-02-23T15:13:43.282Z,11.15
2024-02-23T15:16:46.262Z,11.16
2024-02-23T15:19:48.604Z,11.20
2024-02-23T15:22:51.245Z,11.16
2024-02-23T15:26:03.948Z,11.13
2024-02-23T15:29:09.994Z,11.18
2024-02-23T15:32:12.668Z,11.13
2024-02-23T15:35:15.290Z,11.17
2024-02-23T15:38:17.809Z,11.10
2024-02-23T15:41:20.241Z,11.09
2024-02-23T15:44:22.534Z,11.09
2024-02-23T15:47:25.153Z,11.11
2024-02-23T15:50:43.448Z,11.09
2024-02-23T15:53:51.764Z,11.11
2024-02-23T15:56:54.123Z,11.10
2024-02-23T16:00:03.166Z,11.08
2024-02-23T16:03:07.168Z,11.10
2024-02-23T16:06:09.869Z,10.99
2024-02-23T16:09:16.102Z,10.98
2024-02-23T16:12:18.979Z,11.01
2024-02-23T16:15:21.222Z,10.94
2024-02-23T16:18:23.796Z,10.86
2024-02-23T16:21:27.363Z,10.80
2024-02-23T16:24:30.278Z,10.71
2024-02-23T16:27:32.505Z,10.70
2024-02-23T16:30:35.135Z,10.61
2024-02-23T16:33:37.342Z,10.56
2024-02-23T16:36:41.696Z,10.52
2024-02-23T16:39:44.422Z,10.49
2024-02-23T16:42:46.971Z,10.44
2024-02-23T16:45:49.226Z,10.43
2024-02-23T16:48:51.761Z,10.49
2024-02-23T16:51:54.300Z,10.49
2024-02-23T16:54:56.895Z,10.45
2024-02-23T16:57:59.614Z,10.45
2024-02-23T17:01:02.676Z,10.42
2024-02-23T17:04:05.439Z,10.40
2024-02-23T17:07:08.091Z,10.38
2024-02-23T17:10:10.418Z,10.41
2024-02-23T17:13:12.872Z,10.41
2024-02-23T17:16:15.126Z,10.42
2024-02-23T17:19:18.173Z,10.41
2024-02-23T17:22:25.841Z,10.42
2024-02-23T17:25:28.359Z,10.47
2024-02-23T17:28:31.486Z,10.51
2024-02-23T17:31:34.102Z,10.54
2024-02-23T17:34:36.387Z,10.45
2024-02-23T17:37:39.076Z,10.42
2024-02-23T17:40:41.659Z,10.47
2024-02-23T17:43:44.248Z,10.52
2024-02-23T17:46:49.076Z,10.58
2024-02-23T17:49:52.157Z,10.53
2024-02-23T17:52:54.351Z,10.68
2024-02-23T17:55:58.889Z,10.59
2024-02-23T17:59:01.325Z,10.58
2024-02-23T18:02:04.205Z,10.63
2024-02-23T18:05:08.812Z,10.71
2024-02-23T18:08:11.337Z,10.76
2024-02-23T18:11:14.057Z,10.76
2024-02-23T18:14:16.617Z,10.72
2024-02-23T18:17:19.169Z,10.80
2024-02-23T18:20:21.601Z,10.77
2024-02-23T18:23:24.155Z,10.76
2024-02-23T18:26:26.388Z,10.75
2024-02-23T18:29:29.049Z,10.83
2024-02-23T18:32:32.449Z,10.79
2024-02-23T18:35:35.162Z,10.74
2024-02-23T18:38:37.772Z,10.79
2024-02-23T18:41:40.588Z,10.71
2024-02-23T18:44:43.657Z,10.74
2024-02-23T18:47:46.428Z,10.67
2024-02-23T18:50:49.559Z,10.72
2024-02-23T18:53:52.253Z,10.72
2024-02-23T18:56:54.526Z,10.64
2024-02-23T18:59:57.128Z,10.67
2024-02-23T19:02:59.456Z,10.72
2024-02-23T19:06:02.100Z,10.77
2024-02-23T19:09:06.122Z,10.79
2024-02-23T19:12:10.856Z,10.79
2024-02-23T19:15:13.197Z,10.76
2024-02-23T19:18:17.070Z,10.69
2024-02-23T19:21:20.385Z,10.82
2024-02-23T19:24:26.049Z,10.69
2024-02-23T19:27:28.311Z,10.66
2024-02-23T19:30:30.846Z,10.64
2024-02-23T19:33:33.271Z,10.66
2024-02-23T19:36:35.833Z,10.54
2024-02-23T19:39:38.128Z,10.51
2024-02-23T19:42:40.612Z,10.48
2024-02-23T19:45:43.143Z,10.49
2024-02-23T19:48:46.419Z,10.49
2024-02-23T19:51:48.869Z,10.44
2024-02-23T19:54:51.943Z,10.41
2024-02-23T19:57:55.752Z,10.42
2024-02-23T20:00:58.309Z,10.48
2024-02-23T20:04:01.399Z,10.54
2024-02-23T20:07:07.521Z,10.44
2024-02-23T20:10:10.759Z,10.50
2024-02-23T20:13:13.642Z,10.53
2024-02-23T20:16:16.297Z,10.60
2024-02-23T20:19:18.713Z,10.61
2024-02-23T20:22:22.424Z,10.60
2024-02-23T20:25:24.681Z,10.64
2024-02-23T20:28:29.329Z,10.63
2024-02-23T20:31:32.198Z,10.66
2024-02-23T20:34:34.833Z,10.62
2024-02-23T20:37:39.084Z,10.60
2024-02-23T20:40:41.672Z,10.54
2024-02-23T20:43:43.884Z,10.54
2024-02-23T20:46:46.392Z,10.54
2024-02-23T20:49:49.905Z,10.51
2024-02-23T20:52:52.470Z,10.56
2024-02-23T20:55:54.729Z,10.53
2024-02-23T20:58:57.962Z,10.54
2024-02-23T21:02:00.206Z,10.62
2024-02-23T21:05:02.947Z,10.63
2024-02-23T21:08:07.639Z,10.56
2024-02-23T21:11:10.726Z,10.57
2024-02-23T21:14:15.819Z,10.52
2024-02-23T21:17:18.504Z,10.44
2024-02-23T21:20:20.905Z,10.41
2024-02-23T21:23:23.877Z,10.42
2024-02-23T21:26:29.293Z,10.45
2024-02-23T21:29:31.855Z,10.43
2024-02-23T21:32:34.227Z,10.40
2024-02-23T21:35:37.498Z,10.40
2024-02-23T21:38:39.904Z,10.35
2024-02-23T21:41:42.552Z,10.38
2024-02-23T21:44:45.223Z,10.33
2024-02-23T21:47:47.910Z,10.23
2024-02-23T21:50:50.303Z,10.19
2024-02-23T21:53:53.126Z,10.17
2024-02-23T21:56:55.438Z,10.14
2024-02-23T21:59:58.454Z,10.11
2024-02-23T22:03:03.902Z,10.09
2024-02-23T22:06:07.771Z,10.10
2024-02-23T22:09:10.265Z,10.26
2024-02-23T22:12:12.924Z,10.24
2024-02-23T22:15:15.560Z,10.10
2024-02-23T22:18:18.485Z,10.08
2024-02-23T22:21:21.595Z,10.04
2024-02-23T22:24:24.475Z,10.06
2024-02-23T22:27:29.999Z,10.10
2024-02-23T22:30:32.484Z,10.12
2024-02-23T22:33:34.874Z,10.12
2024-02-23T22:36:37.762Z,10.10
2024-02-23T22:39:41.562Z,10.13
2024-02-23T22:42:44.177Z,10.17
2024-02-23T22:45:46.512Z,10.18
2024-02-23T22:48:49.175Z,10.20
2024-02-23T22:51:51.519Z,10.22
2024-02-23T22:54:54.909Z,10.19
2024-02-23T22:57:57.162Z,10.18
2024-02-23T23:00:59.804Z,10.28
2024-02-23T23:04:02.081Z,10.27
2024-02-23T23:07:05.351Z,10.31
2024-02-23T23:10:08.417Z,10.28
2024-02-23T23:13:11.103Z,10.25
2024-02-23T23:16:14.353Z,10.20
2024-02-23T23:19:17.677Z,10.18
2024-02-23T23:22:20.106Z,10.28
2024-02-23T23:25:22.609Z,10.21
2024-02-23T23:28:24.851Z,10.15
2024-02-23T23:31:29.087Z,10.08
2024-02-23T23:34:31.810Z,10.09
2024-02-23T23:37:34.395Z,10.04
2024-02-23T23:40:36.794Z,10.07
2024-02-23T23:43:40.461Z,10.07
2024-02-23T23:46:43.236Z,10.13
2024-02-23T23:49:46.019Z,10.11
2024-02-23T23:52:48.305Z,10.08
2024-02-23T23:55:50.925Z,10.07
2024-02-23T23:58:53.228Z,10.06
